sensor_id;sensor_type;location;lat;lon;timestamp;temperature;humidity
23729;DHT22;12045;60.214;24.724;2023-04-24T00:04:57;11.70;99.90
23729;DHT22;12045;60.214;24.724;2023-04-24T00:07:31;11.70;99.90
23729;DHT22;12045;60.214;24.724;2023-04-24T00:12:28;11.70;99.90
23729;DHT22;12045;60.214;24.724;2023-04-24T00:14:55;11.70;99.90
23729;DHT22;12045;60.214;24.724;2023-04-24T00:17:22;11.70;99.90
23729;DHT22;12045;60.214;24.724;2023-04-24T00:19:50;11.70;99.90
23729;DHT22;12045;60.214;24.724;2023-04-24T00:22:18;11.80;99.90
23729;DHT22;12045;60.214;24.724;2023-04-24T00:24:47;11.60;99.90
23729;DHT22;12045;60.214;24.724;2023-04-24T00:27:15;11.70;99.90
23729;DHT22;12045;60.214;24.724;2023-04-24T00:29:42;11.70;99.90
23729;DHT22;12045;60.214;24.724;2023-04-24T00:32:11;11.00;99.90
23729;DHT22;12045;60.214;24.724;2023-04-24T00:34:38;11.50;99.90
23729;DHT22;12045;60.214;24.724;2023-04-24T00:37:06;11.60;99.90
23729;DHT22;12045;60.214;24.724;2023-04-24T00:39:33;11.60;99.90
23729;DHT22;12045;60.214;24.724;2023-04-24T00:42:01;11.70;99.90
23729;DHT22;12045;60.214;24.724;2023-04-24T00:44:29;11.60;99.90
23729;DHT22;12045;60.214;24.724;2023-04-24T00:46:56;11.20;99.90
23729;DHT22;12045;60.214;24.724;2023-04-24T00:49:25;11.00;99.90
23729;DHT22;12045;60.214;24.724;2023-04-24T00:51:52;11.70;99.90
23729;DHT22;12045;60.214;24.724;2023-04-24T00:54:21;11.80;99.90
23729;DHT22;12045;60.214;24.724;2023-04-24T00:56:48;11.60;99.90
23729;DHT22;12045;60.214;24.724;2023-04-24T00:59:16;11.60;99.90
23729;DHT22;12045;60.214;24.724;2023-04-24T01:01:45;11.60;99.90
23729;DHT22;12045;60.214;24.724;2023-04-24T01:04:13;11.40;99.90
23729;DHT22;12045;60.214;24.724;2023-04-24T01:06:43;11.60;99.90
23729;DHT22;12045;60.214;24.724;2023-04-24T01:09:12;11.00;99.90
23729;DHT22;12045;60.214;24.724;2023-04-24T01:11:41;11.20;99.90
23729;DHT22;12045;60.214;24.724;2023-04-24T01:14:09;11.60;99.90
23729;DHT22;12045;60.214;24.724;2023-04-24T01:16:37;11.50;99.90
23729;DHT22;12045;60.214;24.724;2023-04-24T01:19:10;11.50;99.90
23729;DHT22;12045;60.214;24.724;2023-04-24T01:21:38;11.70;99.90
23729;DHT22;12045;60.214;24.724;2023-04-24T01:24:06;11.60;99.90
23729;DHT22;12045;60.214;24.724;2023-04-24T01:26:34;11.50;99.90
23729;DHT22;12045;60.214;24.724;2023-04-24T01:29:02;11.30;99.90
23729;DHT22;12045;60.214;24.724;2023-04-24T01:33:58;11.30;99.90
23729;DHT22;12045;60.214;24.724;2023-04-24T01:36:27;11.20;99.90
23729;DHT22;12045;60.214;24.724;2023-04-24T01:38:55;11.20;99.90
23729;DHT22;12045;60.214;24.724;2023-04-24T01:43:52;11.30;99.90
23729;DHT22;12045;60.214;24.724;2023-04-24T01:46:19;11.30;99.90
23729;DHT22;12045;60.214;24.724;2023-04-24T01:48:47;11.40;99.90
23729;DHT22;12045;60.214;24.724;2023-04-24T01:51:15;11.30;99.90
23729;DHT22;12045;60.214;24.724;2023-04-24T01:53:42;11.30;99.90
23729;DHT22;12045;60.214;24.724;2023-04-24T01:56:11;11.50;99.90
23729;DHT22;12045;60.214;24.724;2023-04-24T01:58:39;11.50;99.90
23729;DHT22;12045;60.214;24.724;2023-04-24T02:01:06;11.50;99.90
23729;DHT22;12045;60.214;24.724;2023-04-24T02:03:34;11.50;99.90
23729;DHT22;12045;60.214;24.724;2023-04-24T02:06:04;11.60;99.90
23729;DHT22;12045;60.214;24.724;2023-04-24T02:08:31;11.50;99.90
23729;DHT22;12045;60.214;24.724;2023-04-24T02:11:02;11.40;99.90
23729;DHT22;12045;60.214;24.724;2023-04-24T02:13:29;11.70;99.90
23729;DHT22;12045;60.214;24.724;2023-04-24T02:18:26;11.70;99.90
23729;DHT22;12045;60.214;24.724;2023-04-24T02:20:53;11.60;99.90
23729;DHT22;12045;60.214;24.724;2023-04-24T03:38:49;11.60;99.90
23729;DHT22;12045;60.214;24.724;2023-04-24T03:41:16;11.40;99.90
23729;DHT22;12045;60.214;24.724;2023-04-24T03:43:44;11.50;99.90
23729;DHT22;12045;60.214;24.724;2023-04-24T03:46:11;11.50;99.90
23729;DHT22;12045;60.214;24.724;2023-04-24T03:48:39;10.70;99.90
23729;DHT22;12045;60.214;24.724;2023-04-24T03:51:06;11.10;99.90
23729;DHT22;12045;60.214;24.724;2023-04-24T03:53:33;10.90;99.90
23729;DHT22;12045;60.214;24.724;2023-04-24T03:56:01;10.90;99.90
23729;DHT22;12045;60.214;24.724;2023-04-24T03:58:28;10.80;99.90
23729;DHT22;12045;60.214;24.724;2023-04-24T04:00:56;10.80;99.90
23729;DHT22;12045;60.214;24.724;2023-04-24T04:03:25;10.60;99.90
23729;DHT22;12045;60.214;24.724;2023-04-24T04:05:53;10.70;99.90
23729;DHT22;12045;60.214;24.724;2023-04-24T04:08:21;10.80;99.90
23729;DHT22;12045;60.214;24.724;2023-04-24T04:10:49;10.70;99.90
23729;DHT22;12045;60.214;24.724;2023-04-24T04:13:16;10.20;99.90
23729;DHT22;12045;60.214;24.724;2023-04-24T04:15:44;10.10;99.90
23729;DHT22;12045;60.214;24.724;2023-04-24T04:18:11;10.20;99.90
23729;DHT22;12045;60.214;24.724;2023-04-24T04:20:39;10.20;99.90
23729;DHT22;12045;60.214;24.724;2023-04-24T04:23:06;10.00;99.90
23729;DHT22;12045;60.214;24.724;2023-04-24T04:25:34;9.90;99.90
23729;DHT22;12045;60.214;24.724;2023-04-24T04:28:01;10.00;99.90
23729;DHT22;12045;60.214;24.724;2023-04-24T04:30:29;10.00;99.90
23729;DHT22;12045;60.214;24.724;2023-04-24T04:32:59;10.00;99.90
23729;DHT22;12045;60.214;24.724;2023-04-24T04:35:27;10.20;99.90
23729;DHT22;12045;60.214;24.724;2023-04-24T04:37:55;10.10;99.90
23729;DHT22;12045;60.214;24.724;2023-04-24T04:40:26;10.20;99.90
23729;DHT22;12045;60.214;24.724;2023-04-24T04:42:54;10.30;99.90
23729;DHT22;12045;60.214;24.724;2023-04-24T04:45:21;10.00;99.90
23729;DHT22;12045;60.214;24.724;2023-04-24T04:47:49;10.00;99.90
23729;DHT22;12045;60.214;24.724;2023-04-24T04:50:16;9.50;99.90
23729;DHT22;12045;60.214;24.724;2023-04-24T04:52:47;10.10;99.90
23729;DHT22;12045;60.214;24.724;2023-04-24T04:55:15;9.30;99.90
23729;DHT22;12045;60.214;24.724;2023-04-24T04:57:43;10.00;99.90
23729;DHT22;12045;60.214;24.724;2023-04-24T05:00:10;9.80;99.90
23729;DHT22;12045;60.214;24.724;2023-04-24T05:02:38;10.20;99.90
23729;DHT22;12045;60.214;24.724;2023-04-24T05:05:07;9.70;99.90
23729;DHT22;12045;60.214;24.724;2023-04-24T05:07:35;9.80;99.90
23729;DHT22;12045;60.214;24.724;2023-04-24T05:10:04;9.60;99.90
23729;DHT22;12045;60.214;24.724;2023-04-24T05:12:32;9.70;99.90
23729;DHT22;12045;60.214;24.724;2023-04-24T05:14:59;9.90;99.90
23729;DHT22;12045;60.214;24.724;2023-04-24T05:17:29;9.60;99.90
23729;DHT22;12045;60.214;24.724;2023-04-24T05:19:56;9.80;99.90
23729;DHT22;12045;60.214;24.724;2023-04-24T05:22:25;10.00;99.90
23729;DHT22;12045;60.214;24.724;2023-04-24T05:24:55;9.30;99.90
23729;DHT22;12045;60.214;24.724;2023-04-24T05:27:24;9.60;99.90
23729;DHT22;12045;60.214;24.724;2023-04-24T05:29:52;9.80;99.90
23729;DHT22;12045;60.214;24.724;2023-04-24T05:32:19;10.10;99.90
23729;DHT22;12045;60.214;24.724;2023-04-24T05:34:47;9.90;99.90
23729;DHT22;12045;60.214;24.724;2023-04-24T05:37:15;10.70;99.90
23729;DHT22;12045;60.214;24.724;2023-04-24T05:39:42;9.60;99.90
23729;DHT22;12045;60.214;24.724;2023-04-24T05:42:10;9.30;99.90
23729;DHT22;12045;60.214;24.724;2023-04-24T05:44:38;9.70;99.90
23729;DHT22;12045;60.214;24.724;2023-04-24T05:47:05;9.10;99.90
23729;DHT22;12045;60.214;24.724;2023-04-24T05:49:33;10.40;99.90
23729;DHT22;12045;60.214;24.724;2023-04-24T05:52:00;9.80;99.90
23729;DHT22;12045;60.214;24.724;2023-04-24T05:54:28;10.30;99.90
23729;DHT22;12045;60.214;24.724;2023-04-24T05:56:55;9.40;99.90
23729;DHT22;12045;60.214;24.724;2023-04-24T05:59:23;9.60;99.90
23729;DHT22;12045;60.214;24.724;2023-04-24T06:01:50;10.50;99.90
23729;DHT22;12045;60.214;24.724;2023-04-24T06:04:17;10.10;99.90
23729;DHT22;12045;60.214;24.724;2023-04-24T06:06:46;9.40;99.90
23729;DHT22;12045;60.214;24.724;2023-04-24T06:09:13;9.60;99.90
23729;DHT22;12045;60.214;24.724;2023-04-24T06:11:41;9.70;99.90
23729;DHT22;12045;60.214;24.724;2023-04-24T06:14:08;9.80;99.90
23729;DHT22;12045;60.214;24.724;2023-04-24T06:16:36;9.80;99.90
23729;DHT22;12045;60.214;24.724;2023-04-24T06:19:04;9.80;99.90
23729;DHT22;12045;60.214;24.724;2023-04-24T06:21:31;9.80;99.90
23729;DHT22;12045;60.214;24.724;2023-04-24T06:23:59;9.70;99.90
23729;DHT22;12045;60.214;24.724;2023-04-24T06:26:27;9.80;99.90
23729;DHT22;12045;60.214;24.724;2023-04-24T06:28:55;9.80;99.90
23729;DHT22;12045;60.214;24.724;2023-04-24T06:31:23;9.60;99.90
23729;DHT22;12045;60.214;24.724;2023-04-24T06:33:50;9.40;99.90
23729;DHT22;12045;60.214;24.724;2023-04-24T06:36:18;9.70;99.90
23729;DHT22;12045;60.214;24.724;2023-04-24T06:38:46;9.50;99.90
23729;DHT22;12045;60.214;24.724;2023-04-24T06:41:13;9.20;99.90
23729;DHT22;12045;60.214;24.724;2023-04-24T06:43:41;8.80;99.90
23729;DHT22;12045;60.214;24.724;2023-04-24T06:46:09;9.30;99.90
23729;DHT22;12045;60.214;24.724;2023-04-24T06:48:37;10.10;99.90
23729;DHT22;12045;60.214;24.724;2023-04-24T06:51:13;9.90;99.90
23729;DHT22;12045;60.214;24.724;2023-04-24T06:53:40;9.60;99.90
23729;DHT22;12045;60.214;24.724;2023-04-24T06:56:10;9.90;99.90
23729;DHT22;12045;60.214;24.724;2023-04-24T06:58:37;10.10;99.90
23729;DHT22;12045;60.214;24.724;2023-04-24T07:01:05;10.00;99.90
23729;DHT22;12045;60.214;24.724;2023-04-24T07:03:36;10.40;99.90
23729;DHT22;12045;60.214;24.724;2023-04-24T07:06:05;11.30;99.90
23729;DHT22;12045;60.214;24.724;2023-04-24T07:08:32;10.30;99.90
23729;DHT22;12045;60.214;24.724;2023-04-24T07:11:01;10.20;99.90
23729;DHT22;12045;60.214;24.724;2023-04-24T07:13:29;11.40;99.90
23729;DHT22;12045;60.214;24.724;2023-04-24T07:15:56;10.50;99.90
23729;DHT22;12045;60.214;24.724;2023-04-24T07:18:24;11.40;99.90
23729;DHT22;12045;60.214;24.724;2023-04-24T07:20:56;11.00;99.90
23729;DHT22;12045;60.214;24.724;2023-04-24T07:23:23;11.40;99.90
23729;DHT22;12045;60.214;24.724;2023-04-24T07:25:51;10.80;99.90
23729;DHT22;12045;60.214;24.724;2023-04-24T07:28:18;11.60;99.90
23729;DHT22;12045;60.214;24.724;2023-04-24T07:30:46;10.80;99.90
23729;DHT22;12045;60.214;24.724;2023-04-24T07:33:14;11.80;99.90
23729;DHT22;12045;60.214;24.724;2023-04-24T07:35:42;12.40;99.90
23729;DHT22;12045;60.214;24.724;2023-04-24T07:38:11;11.90;99.90
23729;DHT22;12045;60.214;24.724;2023-04-24T07:40:39;12.40;99.90
23729;DHT22;12045;60.214;24.724;2023-04-24T07:43:09;12.10;99.90
23729;DHT22;12045;60.214;24.724;2023-04-24T07:45:39;12.50;99.90
23729;DHT22;12045;60.214;24.724;2023-04-24T07:48:10;12.10;99.90
23729;DHT22;12045;60.214;24.724;2023-04-24T07:50:38;12.20;99.90
23729;DHT22;12045;60.214;24.724;2023-04-24T07:53:08;12.40;99.90
23729;DHT22;12045;60.214;24.724;2023-04-24T07:55:36;12.50;99.90
23729;DHT22;12045;60.214;24.724;2023-04-24T07:58:06;13.10;99.90
23729;DHT22;12045;60.214;24.724;2023-04-24T08:00:35;14.00;99.90
23729;DHT22;12045;60.214;24.724;2023-04-24T08:03:06;12.90;99.90
23729;DHT22;12045;60.214;24.724;2023-04-24T08:05:34;13.40;99.90
23729;DHT22;12045;60.214;24.724;2023-04-24T08:08:07;13.30;99.90
23729;DHT22;12045;60.214;24.724;2023-04-24T08:10:35;13.00;99.90
23729;DHT22;12045;60.214;24.724;2023-04-24T08:13:03;12.80;99.90
23729;DHT22;12045;60.214;24.724;2023-04-24T08:15:31;13.40;99.90
23729;DHT22;12045;60.214;24.724;2023-04-24T08:17:57;12.90;99.90
23729;DHT22;12045;60.214;24.724;2023-04-24T08:20:31;12.70;99.90
23729;DHT22;12045;60.214;24.724;2023-04-24T08:23:00;12.60;99.90
23729;DHT22;12045;60.214;24.724;2023-04-24T08:25:30;13.80;99.90
23729;DHT22;12045;60.214;24.724;2023-04-24T08:27:58;13.40;99.90
23729;DHT22;12045;60.214;24.724;2023-04-24T08:30:27;13.10;99.90
23729;DHT22;12045;60.214;24.724;2023-04-24T08:32:57;12.90;99.90
23729;DHT22;12045;60.214;24.724;2023-04-24T08:35:25;13.60;99.90
23729;DHT22;12045;60.214;24.724;2023-04-24T08:37:54;13.60;99.90
23729;DHT22;12045;60.214;24.724;2023-04-24T08:40:27;14.80;99.90
23729;DHT22;12045;60.214;24.724;2023-04-24T08:42:59;13.60;99.90
23729;DHT22;12045;60.214;24.724;2023-04-24T08:45:27;13.20;99.90
23729;DHT22;12045;60.214;24.724;2023-04-24T08:47:55;13.60;99.90
23729;DHT22;12045;60.214;24.724;2023-04-24T08:50:25;12.90;99.90
23729;DHT22;12045;60.214;24.724;2023-04-24T08:52:54;13.60;99.90
23729;DHT22;12045;60.214;24.724;2023-04-24T08:55:24;13.30;99.90
23729;DHT22;12045;60.214;24.724;2023-04-24T08:57:52;14.10;99.90
23729;DHT22;12045;60.214;24.724;2023-04-24T09:00:21;13.60;99.90
23729;DHT22;12045;60.214;24.724;2023-04-24T09:02:50;13.30;99.90
23729;DHT22;12045;60.214;24.724;2023-04-24T09:05:18;13.70;99.90
23729;DHT22;12045;60.214;24.724;2023-04-24T09:07:55;13.30;99.90
23729;DHT22;12045;60.214;24.724;2023-04-24T09:10:25;14.10;99.90
23729;DHT22;12045;60.214;24.724;2023-04-24T09:12:54;13.50;99.90
23729;DHT22;12045;60.214;24.724;2023-04-24T09:15:22;14.40;99.90
23729;DHT22;12045;60.214;24.724;2023-04-24T09:17:53;15.10;99.90
23729;DHT22;12045;60.214;24.724;2023-04-24T09:20:23;14.50;99.90
23729;DHT22;12045;60.214;24.724;2023-04-24T09:22:54;15.00;99.90
23729;DHT22;12045;60.214;24.724;2023-04-24T09:25:34;14.60;99.90
23729;DHT22;12045;60.214;24.724;2023-04-24T09:28:06;13.90;99.90
23729;DHT22;12045;60.214;24.724;2023-04-24T09:30:34;13.40;99.90
23729;DHT22;12045;60.214;24.724;2023-04-24T09:33:15;14.00;99.90
23729;DHT22;12045;60.214;24.724;2023-04-24T09:35:52;13.90;99.90
23729;DHT22;12045;60.214;24.724;2023-04-24T09:38:30;13.60;99.90
23729;DHT22;12045;60.214;24.724;2023-04-24T09:41:01;14.30;99.90
23729;DHT22;12045;60.214;24.724;2023-04-24T09:43:35;13.80;99.90
23729;DHT22;12045;60.214;24.724;2023-04-24T09:46:08;13.70;99.90
23729;DHT22;12045;60.214;24.724;2023-04-24T09:48:37;14.40;99.90
23729;DHT22;12045;60.214;24.724;2023-04-24T09:51:06;13.80;99.90
23729;DHT22;12045;60.214;24.724;2023-04-24T09:53:45;14.00;99.90
23729;DHT22;12045;60.214;24.724;2023-04-24T09:56:13;13.60;99.90
23729;DHT22;12045;60.214;24.724;2023-04-24T09:58:42;13.80;99.90
23729;DHT22;12045;60.214;24.724;2023-04-24T10:01:10;13.30;99.90
23729;DHT22;12045;60.214;24.724;2023-04-24T10:03:42;13.80;99.90
23729;DHT22;12045;60.214;24.724;2023-04-24T10:06:12;14.50;99.90
23729;DHT22;12045;60.214;24.724;2023-04-24T10:08:39;14.00;99.90
23729;DHT22;12045;60.214;24.724;2023-04-24T10:11:08;13.80;99.90
23729;DHT22;12045;60.214;24.724;2023-04-24T10:13:37;13.60;99.90
23729;DHT22;12045;60.214;24.724;2023-04-24T10:16:06;13.70;99.90
23729;DHT22;12045;60.214;24.724;2023-04-24T10:18:36;13.70;99.90
23729;DHT22;12045;60.214;24.724;2023-04-24T10:21:05;13.80;99.90
23729;DHT22;12045;60.214;24.724;2023-04-24T10:23:35;13.60;99.90
23729;DHT22;12045;60.214;24.724;2023-04-24T10:26:04;14.20;99.90
23729;DHT22;12045;60.214;24.724;2023-04-24T10:28:32;14.20;99.90
23729;DHT22;12045;60.214;24.724;2023-04-24T10:31:01;14.30;99.90
23729;DHT22;12045;60.214;24.724;2023-04-24T10:33:29;14.90;99.90
23729;DHT22;12045;60.214;24.724;2023-04-24T10:35:58;14.80;99.90
23729;DHT22;12045;60.214;24.724;2023-04-24T10:38:30;14.90;99.90
23729;DHT22;12045;60.214;24.724;2023-04-24T10:41:18;16.40;99.90
23729;DHT22;12045;60.214;24.724;2023-04-24T10:44:10;16.10;99.90
23729;DHT22;12045;60.214;24.724;2023-04-24T10:46:39;16.60;99.90
23729;DHT22;12045;60.214;24.724;2023-04-24T10:49:12;16.20;99.90
23729;DHT22;12045;60.214;24.724;2023-04-24T10:51:53;15.90;99.90
23729;DHT22;12045;60.214;24.724;2023-04-24T10:54:34;16.20;99.90
23729;DHT22;12045;60.214;24.724;2023-04-24T11:00:14;16.10;99.90
23729;DHT22;12045;60.214;24.724;2023-04-24T11:02:42;15.60;99.90
23729;DHT22;12045;60.214;24.724;2023-04-24T11:08:43;15.30;99.90
23729;DHT22;12045;60.214;24.724;2023-04-24T11:11:17;17.30;99.90
23729;DHT22;12045;60.214;24.724;2023-04-24T11:27:13;17.30;99.90
23729;DHT22;12045;60.214;24.724;2023-04-24T11:29:47;17.70;99.90
23729;DHT22;12045;60.214;24.724;2023-04-24T11:32:29;18.10;99.90
23729;DHT22;12045;60.214;24.724;2023-04-24T11:40:13;18.50;99.90
23729;DHT22;12045;60.214;24.724;2023-04-24T11:42:45;18.70;99.90
23729;DHT22;12045;60.214;24.724;2023-04-24T11:45:27;18.20;99.90
23729;DHT22;12045;60.214;24.724;2023-04-24T11:47:55;18.10;99.90
23729;DHT22;12045;60.214;24.724;2023-04-24T11:50:25;18.40;99.90
23729;DHT22;12045;60.214;24.724;2023-04-24T11:52:53;18.40;99.90
23729;DHT22;12045;60.214;24.724;2023-04-24T11:57:50;18.30;99.90
23729;DHT22;12045;60.214;24.724;2023-04-24T12:00:20;17.90;99.90
23729;DHT22;12045;60.214;24.724;2023-04-24T12:02:48;17.60;99.90
23729;DHT22;12045;60.214;24.724;2023-04-24T12:05:21;17.90;99.90
23729;DHT22;12045;60.214;24.724;2023-04-24T12:07:49;17.90;99.90
23729;DHT22;12045;60.214;24.724;2023-04-24T12:10:25;17.50;99.90
23729;DHT22;12045;60.214;24.724;2023-04-24T12:12:55;17.50;99.90
23729;DHT22;12045;60.214;24.724;2023-04-24T12:15:23;17.20;99.90
23729;DHT22;12045;60.214;24.724;2023-04-24T12:17:52;17.10;99.90
23729;DHT22;12045;60.214;24.724;2023-04-24T12:20:26;17.30;99.90
23729;DHT22;12045;60.214;24.724;2023-04-24T12:22:55;17.20;99.90
23729;DHT22;12045;60.214;24.724;2023-04-24T12:25:25;17.80;99.90
23729;DHT22;12045;60.214;24.724;2023-04-24T12:30:35;17.20;99.90
23729;DHT22;12045;60.214;24.724;2023-04-24T12:33:05;18.20;99.90
23729;DHT22;12045;60.214;24.724;2023-04-24T12:35:33;17.50;99.90
23729;DHT22;12045;60.214;24.724;2023-04-24T12:38:11;17.10;99.90
23729;DHT22;12045;60.214;24.724;2023-04-24T12:40:41;17.80;99.90
23729;DHT22;12045;60.214;24.724;2023-04-24T12:43:17;18.60;99.90
23729;DHT22;12045;60.214;24.724;2023-04-24T12:45:45;18.00;99.90
23729;DHT22;12045;60.214;24.724;2023-04-24T12:48:13;17.70;99.90
23729;DHT22;12045;60.214;24.724;2023-04-24T12:50:42;17.60;99.90
23729;DHT22;12045;60.214;24.724;2023-04-24T12:53:12;17.60;99.90
23729;DHT22;12045;60.214;24.724;2023-04-24T12:55:40;17.70;99.90
23729;DHT22;12045;60.214;24.724;2023-04-24T12:58:08;17.80;99.90
23729;DHT22;12045;60.214;24.724;2023-04-24T13:00:36;17.50;99.90
23729;DHT22;12045;60.214;24.724;2023-04-24T13:03:04;17.50;99.90
23729;DHT22;12045;60.214;24.724;2023-04-24T13:05:32;17.60;99.90
23729;DHT22;12045;60.214;24.724;2023-04-24T13:07:59;17.50;99.90
23729;DHT22;12045;60.214;24.724;2023-04-24T13:10:27;17.70;99.90
23729;DHT22;12045;60.214;24.724;2023-04-24T13:12:55;17.40;99.90
23729;DHT22;12045;60.214;24.724;2023-04-24T13:15:23;17.20;99.90
23729;DHT22;12045;60.214;24.724;2023-04-24T13:17:50;16.90;99.90
23729;DHT22;12045;60.214;24.724;2023-04-24T13:20:18;16.40;99.90
23729;DHT22;12045;60.214;24.724;2023-04-24T13:22:46;16.20;99.90
23729;DHT22;12045;60.214;24.724;2023-04-24T13:25:16;16.10;99.90
23729;DHT22;12045;60.214;24.724;2023-04-24T13:27:44;16.10;99.90
23729;DHT22;12045;60.214;24.724;2023-04-24T13:30:12;15.90;99.90
23729;DHT22;12045;60.214;24.724;2023-04-24T13:32:40;15.90;99.90
23729;DHT22;12045;60.214;24.724;2023-04-24T13:35:08;15.60;99.90
23729;DHT22;12045;60.214;24.724;2023-04-24T13:37:35;15.60;99.90
23729;DHT22;12045;60.214;24.724;2023-04-24T13:40:03;15.60;99.90
23729;DHT22;12045;60.214;24.724;2023-04-24T13:42:33;15.70;99.90
23729;DHT22;12045;60.214;24.724;2023-04-24T13:45:01;15.70;99.90
23729;DHT22;12045;60.214;24.724;2023-04-24T13:47:48;15.60;99.90
23729;DHT22;12045;60.214;24.724;2023-04-24T13:50:18;15.70;99.90
23729;DHT22;12045;60.214;24.724;2023-04-24T13:52:46;15.60;99.90
23729;DHT22;12045;60.214;24.724;2023-04-24T13:55:13;15.50;99.90
23729;DHT22;12045;60.214;24.724;2023-04-24T13:57:41;15.40;99.90
23729;DHT22;12045;60.214;24.724;2023-04-24T14:00:09;15.30;99.90
23729;DHT22;12045;60.214;24.724;2023-04-24T14:02:38;15.10;99.90
23729;DHT22;12045;60.214;24.724;2023-04-24T14:05:06;15.20;99.90
23729;DHT22;12045;60.214;24.724;2023-04-24T14:07:33;15.30;99.90
23729;DHT22;12045;60.214;24.724;2023-04-24T14:10:01;15.50;99.90
23729;DHT22;12045;60.214;24.724;2023-04-24T14:12:29;15.60;99.90
23729;DHT22;12045;60.214;24.724;2023-04-24T14:14:56;15.50;99.90
23729;DHT22;12045;60.214;24.724;2023-04-24T14:17:24;15.40;99.90
23729;DHT22;12045;60.214;24.724;2023-04-24T14:19:51;15.30;99.90
23729;DHT22;12045;60.214;24.724;2023-04-24T14:22:20;15.20;99.90
23729;DHT22;12045;60.214;24.724;2023-04-24T14:24:47;15.00;99.90
23729;DHT22;12045;60.214;24.724;2023-04-24T14:27:14;15.00;99.90
23729;DHT22;12045;60.214;24.724;2023-04-24T14:29:42;15.10;99.90
23729;DHT22;12045;60.214;24.724;2023-04-24T14:32:09;15.00;99.90
23729;DHT22;12045;60.214;24.724;2023-04-24T14:34:37;15.50;99.90
23729;DHT22;12045;60.214;24.724;2023-04-24T14:37:04;14.90;99.90
23729;DHT22;12045;60.214;24.724;2023-04-24T14:39:31;14.80;99.90
23729;DHT22;12045;60.214;24.724;2023-04-24T14:42:00;14.60;99.90
23729;DHT22;12045;60.214;24.724;2023-04-24T14:44:28;14.40;99.90
23729;DHT22;12045;60.214;24.724;2023-04-24T14:46:56;14.40;99.90
23729;DHT22;12045;60.214;24.724;2023-04-24T14:49:23;14.40;99.90
23729;DHT22;12045;60.214;24.724;2023-04-24T14:51:51;14.40;99.90
23729;DHT22;12045;60.214;24.724;2023-04-24T14:54:18;14.40;99.90
23729;DHT22;12045;60.214;24.724;2023-04-24T14:56:47;14.40;99.90
23729;DHT22;12045;60.214;24.724;2023-04-24T14:59:14;14.40;99.90
23729;DHT22;12045;60.214;24.724;2023-04-24T15:01:42;14.30;99.90
23729;DHT22;12045;60.214;24.724;2023-04-24T15:04:09;14.20;99.90
23729;DHT22;12045;60.214;24.724;2023-04-24T15:06:37;14.20;99.90
23729;DHT22;12045;60.214;24.724;2023-04-24T15:09:04;14.00;99.90
23729;DHT22;12045;60.214;24.724;2023-04-24T15:11:32;14.00;99.90
23729;DHT22;12045;60.214;24.724;2023-04-24T15:14:01;13.90;99.90
23729;DHT22;12045;60.214;24.724;2023-04-24T15:16:28;13.70;99.90
23729;DHT22;12045;60.214;24.724;2023-04-24T15:18:56;13.50;99.90
23729;DHT22;12045;60.214;24.724;2023-04-24T15:21:24;13.60;99.90
23729;DHT22;12045;60.214;24.724;2023-04-24T15:23:51;13.70;99.90
23729;DHT22;12045;60.214;24.724;2023-04-24T15:26:19;13.80;99.90
23729;DHT22;12045;60.214;24.724;2023-04-24T15:28:47;13.80;99.90
23729;DHT22;12045;60.214;24.724;2023-04-24T15:31:18;14.20;99.90
23729;DHT22;12045;60.214;24.724;2023-04-24T15:33:45;13.70;99.90
23729;DHT22;12045;60.214;24.724;2023-04-24T15:36:13;14.30;99.90
23729;DHT22;12045;60.214;24.724;2023-04-24T15:38:45;14.30;99.90
23729;DHT22;12045;60.214;24.724;2023-04-24T15:41:12;14.30;99.90
23729;DHT22;12045;60.214;24.724;2023-04-24T15:43:40;14.30;99.90
23729;DHT22;12045;60.214;24.724;2023-04-24T15:46:10;14.30;99.90
23729;DHT22;12045;60.214;24.724;2023-04-24T15:48:37;14.20;99.90
23729;DHT22;12045;60.214;24.724;2023-04-24T15:51:08;14.00;99.90
23729;DHT22;12045;60.214;24.724;2023-04-24T15:53:36;14.10;99.90
23729;DHT22;12045;60.214;24.724;2023-04-24T15:56:03;14.20;99.90
23729;DHT22;12045;60.214;24.724;2023-04-24T15:58:34;14.20;99.90
23729;DHT22;12045;60.214;24.724;2023-04-24T16:01:01;14.10;99.90
23729;DHT22;12045;60.214;24.724;2023-04-24T16:03:29;14.20;99.90
23729;DHT22;12045;60.214;24.724;2023-04-24T16:05:58;14.10;99.90
23729;DHT22;12045;60.214;24.724;2023-04-24T16:08:26;14.60;99.90
23729;DHT22;12045;60.214;24.724;2023-04-24T16:10:54;14.10;99.90
23729;DHT22;12045;60.214;24.724;2023-04-24T16:13:21;14.00;99.90
23729;DHT22;12045;60.214;24.724;2023-04-24T16:15:49;13.90;99.90
23729;DHT22;12045;60.214;24.724;2023-04-24T16:18:18;13.90;99.90
23729;DHT22;12045;60.214;24.724;2023-04-24T16:20:45;13.90;99.90
23729;DHT22;12045;60.214;24.724;2023-04-24T16:23:12;13.80;99.90
23729;DHT22;12045;60.214;24.724;2023-04-24T16:25:42;13.70;99.90
23729;DHT22;12045;60.214;24.724;2023-04-24T16:28:10;13.60;99.90
23729;DHT22;12045;60.214;24.724;2023-04-24T16:30:38;13.50;99.90
23729;DHT22;12045;60.214;24.724;2023-04-24T16:33:06;13.60;99.90
23729;DHT22;12045;60.214;24.724;2023-04-24T16:35:35;13.60;99.90
23729;DHT22;12045;60.214;24.724;2023-04-24T16:38:03;13.80;99.90
23729;DHT22;12045;60.214;24.724;2023-04-24T16:40:31;13.70;99.90
23729;DHT22;12045;60.214;24.724;2023-04-24T16:42:58;13.60;99.90
23729;DHT22;12045;60.214;24.724;2023-04-24T16:45:26;13.50;99.90
23729;DHT22;12045;60.214;24.724;2023-04-24T16:47:53;13.50;99.90
23729;DHT22;12045;60.214;24.724;2023-04-24T16:50:21;13.50;99.90
23729;DHT22;12045;60.214;24.724;2023-04-24T16:52:48;13.50;99.90
23729;DHT22;12045;60.214;24.724;2023-04-24T16:55:16;13.50;99.90
23729;DHT22;12045;60.214;24.724;2023-04-24T16:57:43;13.50;99.90
23729;DHT22;12045;60.214;24.724;2023-04-24T17:00:11;13.60;99.90
23729;DHT22;12045;60.214;24.724;2023-04-24T17:02:39;13.70;99.90
23729;DHT22;12045;60.214;24.724;2023-04-24T17:05:07;13.60;99.90
23729;DHT22;12045;60.214;24.724;2023-04-24T17:07:35;13.50;99.90
23729;DHT22;12045;60.214;24.724;2023-04-24T17:10:03;13.60;99.90
23729;DHT22;12045;60.214;24.724;2023-04-24T17:12:30;13.60;99.90
23729;DHT22;12045;60.214;24.724;2023-04-24T17:14:58;13.60;99.90
23729;DHT22;12045;60.214;24.724;2023-04-24T17:17:26;13.50;99.90
23729;DHT22;12045;60.214;24.724;2023-04-24T17:19:53;13.00;99.90
23729;DHT22;12045;60.214;24.724;2023-04-24T17:22:21;13.30;99.90
23729;DHT22;12045;60.214;24.724;2023-04-24T17:24:48;13.30;99.90
23729;DHT22;12045;60.214;24.724;2023-04-24T17:27:16;13.40;99.90